createdAt,value
2018-08-16T00:00:49.541Z,22.70
2018-08-16T00:02:51.570Z,22.70
2018-08-16T00:04:53.554Z,22.70
2018-08-16T00:06:55.529Z,22.70
2018-08-16T00:08:57.544Z,22.70
2018-08-16T00:10:59.526Z,22.70
2018-08-16T00:13:01.521Z,22.70
2018-08-16T00:15:03.553Z,22.60
2018-08-16T00:17:05.530Z,22.60
2018-08-16T00:19:07.534Z,22.60
2018-08-16T00:21:09.552Z,22.60
2018-08-16T00:23:11.585Z,22.60
2018-08-16T00:25:13.622Z,22.60
2018-08-16T00:27:15.645Z,22.60
2018-08-16T00:29:17.635Z,22.60
2018-08-16T00:31:19.646Z,22.60
2018-08-16T00:33:21.677Z,22.60
2018-08-16T00:35:23.670Z,22.60
2018-08-16T00:37:25.649Z,22.60
2018-08-16T00:39:27.646Z,22.60
2018-08-16T00:41:29.686Z,22.60
2018-08-16T00:43:31.657Z,22.60
2018-08-16T00:45:33.654Z,22.60
2018-08-16T00:47:35.680Z,22.60
2018-08-16T00:49:37.680Z,22.60
2018-08-16T00:51:39.697Z,22.60
2018-08-16T00:53:41.674Z,22.60
2018-08-16T00:55:43.704Z,22.60
2018-08-16T00:57:45.688Z,22.50
2018-08-16T00:59:47.663Z,22.60
2018-08-16T01:01:49.684Z,22.60
2018-08-16T01:03:51.692Z,22.60
2018-08-16T01:05:53.716Z,22.50
2018-08-16T01:07:55.695Z,22.50
2018-08-16T01:09:57.730Z,22.50
2018-08-16T01:11:59.734Z,22.50
2018-08-16T01:14:01.718Z,22.50
2018-08-16T01:16:03.748Z,22.50
2018-08-16T01:18:05.728Z,22.50
2018-08-16T01:20:07.752Z,22.50
2018-08-16T01:22:10.101Z,22.50
2018-08-16T01:24:12.118Z,22.50
2018-08-16T01:26:14.102Z,22.50
2018-08-16T01:28:16.076Z,22.50
2018-08-16T01:30:18.082Z,22.50
2018-08-16T01:32:20.098Z,22.50
2018-08-16T01:34:22.108Z,22.50
2018-08-16T01:36:24.154Z,22.50
2018-08-16T01:38:26.136Z,22.50
2018-08-16T01:40:28.108Z,22.50
2018-08-16T01:42:30.108Z,22.50
2018-08-16T01:44:32.086Z,22.50
2018-08-16T01:46:34.086Z,22.50
2018-08-16T01:48:36.080Z,22.50
2018-08-16T01:50:38.100Z,22.50
2018-08-16T01:52:40.078Z,22.50
2018-08-16T01:54:42.101Z,22.50
2018-08-16T01:56:44.101Z,22.50
2018-08-16T01:58:46.115Z,22.50
2018-08-16T02:00:48.096Z,22.40
2018-08-16T02:02:50.082Z,22.50
2018-08-16T02:04:52.091Z,22.40
2018-08-16T02:06:54.104Z,22.40
2018-08-16T02:08:56.093Z,22.40
2018-08-16T02:10:58.096Z,22.40
2018-08-16T02:13:00.066Z,22.40
2018-08-16T02:15:02.086Z,22.40
2018-08-16T02:17:04.098Z,22.40
2018-08-16T02:19:06.094Z,22.40
2018-08-16T02:21:08.127Z,22.40
2018-08-16T02:23:10.111Z,22.40
2018-08-16T02:25:12.108Z,22.40
2018-08-16T02:27:14.135Z,22.40
2018-08-16T02:29:16.137Z,22.40
2018-08-16T02:31:18.098Z,22.40
2018-08-16T02:33:20.108Z,22.40
2018-08-16T02:35:22.102Z,22.40
2018-08-16T02:37:24.129Z,22.40
2018-08-16T02:39:26.122Z,22.50
2018-08-16T02:41:28.108Z,22.50
2018-08-16T02:43:30.121Z,22.50
2018-08-16T02:45:32.100Z,22.40
2018-08-16T02:47:34.080Z,22.40
2018-08-16T02:49:36.071Z,22.40
2018-08-16T02:51:38.068Z,22.40
2018-08-16T02:53:40.040Z,22.40
2018-08-16T02:55:42.058Z,22.40
2018-08-16T02:57:44.073Z,22.40
2018-08-16T02:59:46.075Z,22.40
2018-08-16T03:01:48.052Z,22.40
2018-08-16T03:03:50.078Z,22.40
2018-08-16T03:05:52.089Z,22.40
2018-08-16T03:07:54.123Z,22.40
2018-08-16T03:09:56.115Z,22.40
2018-08-16T03:11:58.158Z,22.40
2018-08-16T03:14:00.141Z,22.40
2018-08-16T03:16:02.156Z,22.40
2018-08-16T03:18:04.141Z,22.40
2018-08-16T03:20:06.172Z,22.40
2018-08-16T03:22:08.148Z,22.40
2018-08-16T03:24:10.130Z,22.40
2018-08-16T03:26:12.129Z,22.40
2018-08-16T03:28:14.138Z,22.40
2018-08-16T03:30:16.158Z,22.40
2018-08-16T03:32:18.140Z,22.40
2018-08-16T03:34:20.156Z,22.30
2018-08-16T03:36:22.150Z,22.40
2018-08-16T03:38:24.155Z,22.40
2018-08-16T03:40:26.141Z,22.40
2018-08-16T03:42:28.114Z,22.30
2018-08-16T03:44:30.134Z,22.40
2018-08-16T03:46:32.118Z,22.40
2018-08-16T03:48:34.136Z,22.30
2018-08-16T03:50:36.119Z,22.30
2018-08-16T03:52:38.130Z,22.40
2018-08-16T03:54:40.160Z,22.30
2018-08-16T03:56:42.141Z,22.30
2018-08-16T03:58:44.158Z,22.30
2018-08-16T04:00:46.143Z,22.30
2018-08-16T04:02:48.176Z,22.30
2018-08-16T04:04:50.189Z,22.30
2018-08-16T04:06:52.167Z,22.30
2018-08-16T04:08:54.184Z,22.30
2018-08-16T04:10:56.214Z,22.30
2018-08-16T04:12:58.190Z,22.30
2018-08-16T04:15:00.193Z,22.30
2018-08-16T04:17:02.173Z,22.30
2018-08-16T04:19:04.188Z,22.30
2018-08-16T04:21:06.158Z,22.30
2018-08-16T04:23:08.178Z,22.30
2018-08-16T04:25:10.190Z,22.30
2018-08-16T04:27:12.220Z,22.30
2018-08-16T04:29:14.244Z,22.30
2018-08-16T04:31:16.194Z,22.30
2018-08-16T04:33:18.190Z,22.30
2018-08-16T04:35:20.203Z,22.30
2018-08-16T04:37:22.176Z,22.30
2018-08-16T04:39:24.148Z,22.20
2018-08-16T04:41:26.153Z,22.20
2018-08-16T04:43:28.152Z,22.30
2018-08-16T04:45:30.120Z,22.20
2018-08-16T04:47:32.248Z,22.30
2018-08-16T04:49:34.234Z,22.30
2018-08-16T04:51:36.202Z,22.30
2018-08-16T04:53:38.209Z,22.30
2018-08-16T04:55:40.188Z,22.30
2018-08-16T04:57:42.194Z,22.30
2018-08-16T04:59:44.172Z,22.30
2018-08-16T05:01:46.174Z,22.30
2018-08-16T05:03:48.201Z,22.30
2018-08-16T05:05:50.193Z,22.30
2018-08-16T05:07:52.205Z,22.20
2018-08-16T05:09:54.178Z,22.30
2018-08-16T05:11:56.179Z,22.30
2018-08-16T05:13:58.184Z,22.30
2018-08-16T05:16:00.180Z,22.30
2018-08-16T05:18:02.146Z,22.30
2018-08-16T05:20:04.155Z,22.30
2018-08-16T05:22:06.175Z,22.20
2018-08-16T05:24:08.197Z,22.30
2018-08-16T05:26:10.184Z,22.30
2018-08-16T05:28:12.198Z,22.30
2018-08-16T05:30:14.171Z,22.30
2018-08-16T05:32:16.185Z,22.30
2018-08-16T05:34:18.205Z,22.30
2018-08-16T05:36:20.179Z,22.20
2018-08-16T05:38:22.197Z,22.30
2018-08-16T05:40:24.187Z,22.20
2018-08-16T05:42:26.225Z,22.30
2018-08-16T05:44:28.223Z,22.30
2018-08-16T05:46:30.231Z,22.30
2018-08-16T05:48:32.247Z,22.30
2018-08-16T05:50:34.241Z,22.30
2018-08-16T05:52:36.219Z,22.30
2018-08-16T05:54:38.225Z,22.20
2018-08-16T05:56:40.219Z,22.30
2018-08-16T05:58:42.205Z,22.30
2018-08-16T06:00:44.209Z,22.30
2018-08-16T06:02:46.236Z,22.30
2018-08-16T06:04:48.334Z,22.30
2018-08-16T06:06:50.311Z,22.30
2018-08-16T06:08:52.319Z,22.30
2018-08-16T06:10:54.376Z,22.30
2018-08-16T06:12:56.634Z,22.30
2018-08-16T06:14:58.599Z,22.30
2018-08-16T06:17:00.604Z,22.30
2018-08-16T06:19:02.594Z,22.20
2018-08-16T06:21:04.605Z,22.20
2018-08-16T06:23:06.623Z,22.20
2018-08-16T06:25:08.607Z,22.20
2018-08-16T06:27:10.623Z,22.20
2018-08-16T06:29:12.647Z,22.20
2018-08-16T06:31:14.743Z,22.20
2018-08-16T06:33:17.022Z,22.20
2018-08-16T06:35:19.022Z,22.20
2018-08-16T06:37:21.043Z,22.20
2018-08-16T06:39:23.028Z,22.20
2018-08-16T06:41:25.052Z,22.20
2018-08-16T06:43:27.042Z,22.20
2018-08-16T06:45:29.072Z,22.20
2018-08-16T06:47:31.092Z,22.20
2018-08-16T06:49:33.072Z,22.20
2018-08-16T06:51:35.062Z,22.20
2018-08-16T06:53:37.129Z,22.20
2018-08-16T06:55:39.152Z,22.20
2018-08-16T06:57:41.536Z,22.30
2018-08-16T06:59:43.513Z,22.30
2018-08-16T07:01:45.510Z,22.30
2018-08-16T07:03:47.513Z,22.30
2018-08-16T07:05:49.506Z,22.30
2018-08-16T07:07:51.517Z,22.20
2018-08-16T07:09:53.532Z,22.20
2018-08-16T07:11:55.623Z,22.20
2018-08-16T07:13:57.579Z,22.20
2018-08-16T07:15:59.601Z,22.20
2018-08-16T07:18:01.613Z,22.30
2018-08-16T07:20:03.583Z,22.20
2018-08-16T07:22:05.596Z,22.30
2018-08-16T07:24:07.577Z,22.30
2018-08-16T07:26:09.581Z,22.30
2018-08-16T07:28:11.630Z,22.30
2018-08-16T07:30:13.651Z,22.30
2018-08-16T07:32:15.667Z,22.30
2018-08-16T07:34:17.685Z,22.40
2018-08-16T07:36:19.717Z,22.40
2018-08-16T07:38:21.728Z,22.40
2018-08-16T07:40:23.716Z,22.40
2018-08-16T07:42:25.740Z,22.40
2018-08-16T07:44:27.720Z,22.40
2018-08-16T07:46:29.833Z,22.50
2018-08-16T07:48:32.101Z,22.50
2018-08-16T07:50:34.134Z,22.50
2018-08-16T07:52:36.070Z,22.60
2018-08-16T07:54:38.085Z,22.60
2018-08-16T07:56:40.067Z,22.60
2018-08-16T07:58:42.044Z,22.60
2018-08-16T08:00:44.064Z,22.60
2018-08-16T08:02:46.110Z,22.60
2018-08-16T08:04:48.083Z,22.70
2018-08-16T08:06:50.089Z,22.70
2018-08-16T08:08:52.127Z,22.70
2018-08-16T08:10:54.469Z,22.70
2018-08-16T08:12:56.457Z,22.60
2018-08-16T08:14:58.473Z,22.70
2018-08-16T08:17:00.455Z,22.70
2018-08-16T08:19:02.468Z,22.80
2018-08-16T08:21:04.493Z,22.80
2018-08-16T08:23:06.462Z,22.80
2018-08-16T08:25:08.445Z,22.90
2018-08-16T08:27:10.478Z,22.80
2018-08-16T08:29:12.457Z,22.80
2018-08-16T08:31:14.482Z,22.90
2018-08-16T08:33:16.469Z,22.90
2018-08-16T08:35:18.491Z,22.90
2018-08-16T08:37:20.480Z,22.90
2018-08-16T08:39:22.479Z,22.90
2018-08-16T08:41:24.501Z,23.00
2018-08-16T08:43:26.532Z,23.00
2018-08-16T08:45:28.544Z,23.00
2018-08-16T08:47:30.576Z,23.00
2018-08-16T08:49:32.565Z,23.00
2018-08-16T08:51:34.548Z,23.00
2018-08-16T08:53:36.582Z,23.10
2018-08-16T08:55:38.628Z,23.10
2018-08-16T08:57:40.615Z,23.10
2018-08-16T08:59:42.636Z,23.10
2018-08-16T09:01:44.675Z,23.10
2018-08-16T09:03:46.698Z,23.10
2018-08-16T09:05:48.740Z,23.10
2018-08-16T09:07:50.696Z,23.20
2018-08-16T09:09:52.766Z,23.20
2018-08-16T09:11:54.791Z,23.20
2018-08-16T09:13:56.823Z,23.20
2018-08-16T09:15:58.806Z,23.20
2018-08-16T09:18:00.894Z,23.20
2018-08-16T09:20:02.915Z,23.20
2018-08-16T09:22:04.919Z,23.30
2018-08-16T09:24:06.966Z,23.30
2018-08-16T09:26:08.912Z,23.30
2018-08-16T09:28:10.886Z,23.30
2018-08-16T09:30:12.915Z,23.30
2018-08-16T09:32:14.908Z,23.30
2018-08-16T09:34:16.886Z,23.30
2018-08-16T09:36:18.907Z,23.30
2018-08-16T09:38:20.938Z,23.40
2018-08-16T09:40:22.923Z,23.40
2018-08-16T09:42:24.904Z,23.40
2018-08-16T09:44:26.922Z,23.40
2018-08-16T09:46:28.969Z,23.40
2018-08-16T09:48:31.011Z,23.40
2018-08-16T09:50:33.028Z,23.40
2018-08-16T09:52:35.059Z,23.40
2018-08-16T09:54:37.041Z,23.40
2018-08-16T09:56:39.050Z,23.50
2018-08-16T09:58:41.065Z,23.50
2018-08-16T10:00:43.055Z,23.50
2018-08-16T10:02:45.075Z,23.50
2018-08-16T10:04:47.110Z,23.50
2018-08-16T10:06:49.122Z,23.50
2018-08-16T10:08:51.153Z,23.50
2018-08-16T10:10:53.135Z,23.50
2018-08-16T10:12:55.151Z,23.50
2018-08-16T10:14:57.124Z,23.50
2018-08-16T10:16:59.118Z,23.60
2018-08-16T10:19:01.134Z,23.60
2018-08-16T10:21:03.128Z,23.70
2018-08-16T10:23:05.113Z,23.70
2018-08-16T10:25:07.135Z,23.70
2018-08-16T10:27:09.268Z,23.70
2018-08-16T10:29:11.584Z,23.80
2018-08-16T10:31:13.588Z,23.80
2018-08-16T10:33:15.581Z,23.80
2018-08-16T10:35:17.602Z,23.80
2018-08-16T10:37:19.596Z,23.80
2018-08-16T10:39:21.588Z,23.80
2018-08-16T10:41:23.606Z,23.80
2018-08-16T10:43:25.590Z,23.80
2018-08-16T10:45:27.622Z,23.80
2018-08-16T10:47:29.592Z,23.80
2018-08-16T10:49:31.651Z,23.80
2018-08-16T10:51:33.644Z,23.80
2018-08-16T10:53:35.616Z,23.80
2018-08-16T10:55:37.642Z,23.90
2018-08-16T10:57:39.627Z,23.80
2018-08-16T10:59:41.632Z,23.90
2018-08-16T11:01:43.629Z,23.90
2018-08-16T11:03:45.605Z,23.90
2018-08-16T11:05:47.636Z,23.90
2018-08-16T11:07:49.622Z,23.90
2018-08-16T11:09:51.581Z,23.90
2018-08-16T11:11:53.604Z,23.90
2018-08-16T11:13:55.589Z,23.90
2018-08-16T11:15:57.611Z,23.90
2018-08-16T11:17:59.636Z,23.90
2018-08-16T11:20:01.674Z,23.90
2018-08-16T11:22:04.039Z,23.90
2018-08-16T11:24:06.009Z,24.00
2018-08-16T11:26:08.036Z,24.00
2018-08-16T11:28:10.604Z,23.90
2018-08-16T11:30:12.652Z,23.90
2018-08-16T11:32:14.644Z,24.00
2018-08-16T11:34:16.707Z,24.00
2018-08-16T11:36:18.711Z,24.00
2018-08-16T11:38:20.698Z,24.00
2018-08-16T11:40:22.692Z,24.00
2018-08-16T11:42:24.673Z,24.00
2018-08-16T11:44:26.772Z,24.00
2018-08-16T11:46:28.786Z,24.00
2018-08-16T11:48:30.731Z,24.00
2018-08-16T11:50:32.761Z,24.00
2018-08-16T11:52:34.729Z,24.00
2018-08-16T11:54:36.793Z,24.00
2018-08-16T11:56:38.793Z,24.00
2018-08-16T11:58:40.871Z,24.00
2018-08-16T12:00:42.940Z,24.00
2018-08-16T12:02:44.915Z,24.00
2018-08-16T12:04:46.916Z,24.00
2018-08-16T12:06:49.947Z,24.00
2018-08-16T12:08:51.915Z,24.00
2018-08-16T12:10:53.941Z,24.00
2018-08-16T12:12:55.966Z,24.00
2018-08-16T12:14:57.952Z,24.00
2018-08-16T12:16:59.955Z,24.00
2018-08-16T12:19:02.004Z,24.10
2018-08-16T12:21:04.033Z,24.00
2018-08-16T12:23:06.040Z,24.00
2018-08-16T12:25:08.073Z,24.00
2018-08-16T12:27:10.083Z,24.00
2018-08-16T12:29:12.337Z,24.00
2018-08-16T12:31:14.327Z,24.10
2018-08-16T12:33:16.347Z,24.10
2018-08-16T12:35:18.335Z,24.20
2018-08-16T12:37:20.698Z,24.30
2018-08-16T12:39:22.717Z,24.30
2018-08-16T12:41:24.708Z,24.30
2018-08-16T12:43:26.728Z,24.50
2018-08-16T12:45:28.707Z,24.60
2018-08-16T12:47:30.699Z,24.70
2018-08-16T12:49:32.671Z,24.70
2018-08-16T12:51:34.645Z,24.70
2018-08-16T12:53:36.666Z,24.70
2018-08-16T12:55:38.623Z,24.70
2018-08-16T12:57:40.579Z,24.70
2018-08-16T12:59:42.613Z,24.60
2018-08-16T13:01:44.678Z,24.60
2018-08-16T13:03:46.662Z,24.60
2018-08-16T13:05:48.631Z,24.70
2018-08-16T13:07:50.648Z,24.80
2018-08-16T13:09:52.630Z,25.00
2018-08-16T13:11:54.654Z,25.00
2018-08-16T13:13:56.670Z,24.90
2018-08-16T13:15:58.687Z,24.80
2018-08-16T13:18:00.698Z,24.80
2018-08-16T13:20:02.710Z,24.80
2018-08-16T13:22:04.740Z,24.80
2018-08-16T13:24:06.720Z,24.90
2018-08-16T13:26:08.721Z,24.90
2018-08-16T13:28:10.712Z,25.00
2018-08-16T13:30:12.736Z,25.10
2018-08-16T13:32:14.723Z,25.10
2018-08-16T13:34:16.737Z,25.10
2018-08-16T13:36:18.785Z,25.00
2018-08-16T13:38:20.824Z,25.00
2018-08-16T13:40:22.818Z,25.00
2018-08-16T13:42:24.887Z,25.00
2018-08-16T13:44:26.872Z,25.00
2018-08-16T13:46:28.867Z,25.10
2018-08-16T13:48:30.937Z,25.20
2018-08-16T13:50:33.278Z,25.20
2018-08-16T13:52:35.257Z,25.20
2018-08-16T13:54:37.294Z,25.20
2018-08-16T13:56:39.280Z,25.20
2018-08-16T13:58:41.317Z,25.20
2018-08-16T14:00:43.302Z,25.20
2018-08-16T14:02:45.291Z,25.20
2018-08-16T14:04:47.286Z,25.20
2018-08-16T14:06:49.305Z,25.20
2018-08-16T14:08:51.332Z,25.20
2018-08-16T14:10:53.319Z,25.30
2018-08-16T14:12:55.395Z,25.30
2018-08-16T14:14:57.326Z,25.20
2018-08-16T14:16:59.317Z,25.20
2018-08-16T14:19:01.483Z,25.10
2018-08-16T14:21:03.477Z,25.00
2018-08-16T14:23:05.445Z,25.10
2018-08-16T14:25:07.466Z,25.20
2018-08-16T14:27:09.458Z,25.30
2018-08-16T14:29:11.491Z,25.30
2018-08-16T14:31:13.499Z,25.30
2018-08-16T14:33:15.495Z,25.20
2018-08-16T14:35:17.487Z,25.20
2018-08-16T14:37:19.504Z,25.20
2018-08-16T14:39:21.480Z,25.20
2018-08-16T14:41:23.463Z,25.20
2018-08-16T14:43:25.460Z,25.10
2018-08-16T14:45:27.430Z,25.20
2018-08-16T14:47:29.448Z,25.20
2018-08-16T14:49:31.485Z,25.20
2018-08-16T14:51:33.481Z,25.20
2018-08-16T14:53:35.477Z,25.30
2018-08-16T14:55:37.439Z,25.30
2018-08-16T14:57:39.476Z,25.30
2018-08-16T14:59:41.465Z,25.30
2018-08-16T15:01:43.497Z,25.40
2018-08-16T15:03:45.469Z,25.40
2018-08-16T15:05:47.490Z,25.40
2018-08-16T15:07:49.487Z,25.30
2018-08-16T15:09:51.470Z,25.20
2018-08-16T15:11:53.508Z,25.10
2018-08-16T15:13:55.480Z,25.10
2018-08-16T15:15:57.461Z,25.00
2018-08-16T15:17:59.480Z,25.00
2018-08-16T15:20:01.475Z,25.00
2018-08-16T15:22:03.507Z,25.00
2018-08-16T15:24:05.481Z,24.90
2018-08-16T15:26:07.474Z,24.90
2018-08-16T15:28:09.490Z,24.90
2018-08-16T15:30:11.516Z,24.80
2018-08-16T15:32:13.513Z,24.90
2018-08-16T15:34:15.486Z,24.80
2018-08-16T15:36:17.496Z,24.80
2018-08-16T15:38:19.536Z,24.80
2018-08-16T15:40:21.493Z,24.80
2018-08-16T15:42:23.479Z,24.70
2018-08-16T15:44:25.505Z,24.80
2018-08-16T15:46:27.487Z,24.70
2018-08-16T15:48:29.516Z,24.70
2018-08-16T15:50:31.504Z,24.70
2018-08-16T15:52:33.531Z,24.70
2018-08-16T15:54:35.507Z,24.70
2018-08-16T15:56:37.505Z,24.60
2018-08-16T15:58:40.437Z,24.60
2018-08-16T16:00:42.429Z,24.60
2018-08-16T16:02:44.464Z,24.60
2018-08-16T16:04:46.485Z,24.60
2018-08-16T16:06:48.521Z,24.60
2018-08-16T16:08:50.545Z,24.60
2018-08-16T16:10:52.549Z,24.60
2018-08-16T16:12:54.510Z,24.60
2018-08-16T16:14:56.566Z,24.60
2018-08-16T16:16:58.515Z,24.60
2018-08-16T16:19:00.553Z,24.60
2018-08-16T16:21:02.582Z,24.60
2018-08-16T16:23:04.572Z,24.60
2018-08-16T16:25:06.546Z,24.60
2018-08-16T16:27:08.589Z,24.60
2018-08-16T16:29:11.390Z,24.60
2018-08-16T16:31:13.429Z,24.60
2018-08-16T16:33:15.430Z,24.60
2018-08-16T16:35:17.451Z,24.50
2018-08-16T16:37:19.478Z,24.60
2018-08-16T16:39:21.474Z,24.60
2018-08-16T16:41:23.493Z,24.60
2018-08-16T16:43:25.513Z,24.60
2018-08-16T16:45:27.511Z,24.50
2018-08-16T16:47:29.538Z,24.60
2018-08-16T16:49:31.528Z,24.60
2018-08-16T16:51:33.531Z,24.60
2018-08-16T16:53:35.571Z,24.60
2018-08-16T16:55:37.540Z,24.50
2018-08-16T16:57:39.557Z,24.50
2018-08-16T16:59:41.555Z,24.50
2018-08-16T17:01:43.537Z,24.60
2018-08-16T17:03:45.591Z,24.60
2018-08-16T17:05:47.595Z,24.60
2018-08-16T17:07:49.578Z,24.60
2018-08-16T17:09:51.605Z,24.60
2018-08-16T17:11:53.603Z,24.60
2018-08-16T17:13:55.650Z,24.60
2018-08-16T17:15:57.634Z,24.60
2018-08-16T17:17:59.669Z,24.60
2018-08-16T17:20:01.647Z,24.60
2018-08-16T17:22:03.678Z,24.60
2018-08-16T17:24:05.688Z,24.60
2018-08-16T17:26:07.762Z,24.60
2018-08-16T17:28:09.678Z,24.60
2018-08-16T17:30:11.713Z,24.60
2018-08-16T17:32:13.776Z,24.60
2018-08-16T17:34:15.772Z,24.60
2018-08-16T17:36:17.761Z,24.60
2018-08-16T17:38:19.751Z,24.60
2018-08-16T17:40:21.792Z,24.60
2018-08-16T17:42:23.844Z,24.60
2018-08-16T17:44:25.991Z,24.60
2018-08-16T17:46:27.960Z,24.60
2018-08-16T17:48:29.986Z,24.60
2018-08-16T17:50:31.999Z,24.60
2018-08-16T17:52:34.025Z,24.60
2018-08-16T17:54:36.028Z,24.60
2018-08-16T17:56:38.011Z,24.60
2018-08-16T17:58:40.049Z,24.70
2018-08-16T18:00:42.115Z,24.60
2018-08-16T18:02:44.067Z,24.70
2018-08-16T18:04:46.092Z,24.70
2018-08-16T18:06:48.083Z,24.70
2018-08-16T18:08:50.105Z,24.60
2018-08-16T18:10:52.155Z,24.70
2018-08-16T18:12:54.552Z,24.70
2018-08-16T18:14:56.542Z,24.70
2018-08-16T18:16:58.578Z,24.70
2018-08-16T18:19:00.558Z,24.70
2018-08-16T18:21:02.600Z,24.70
2018-08-16T18:23:04.630Z,24.70
2018-08-16T18:25:06.606Z,24.70
2018-08-16T18:27:08.631Z,24.70
2018-08-16T18:29:10.682Z,24.70
2018-08-16T18:31:13.614Z,24.70
2018-08-16T18:33:15.777Z,24.70
2018-08-16T18:35:17.745Z,24.70
2018-08-16T18:37:19.737Z,24.70
2018-08-16T18:39:21.760Z,24.70
2018-08-16T18:41:23.769Z,24.70
2018-08-16T18:43:25.770Z,24.70
2018-08-16T18:45:27.769Z,24.70
2018-08-16T18:47:29.862Z,24.70
2018-08-16T18:49:31.904Z,24.70
2018-08-16T18:51:33.901Z,24.70
2018-08-16T18:53:35.945Z,24.70
2018-08-16T18:55:38.228Z,24.70
2018-08-16T18:57:40.260Z,24.70
2018-08-16T18:59:42.259Z,24.70
2018-08-16T19:01:44.286Z,24.70
2018-08-16T19:03:46.301Z,24.70
2018-08-16T19:05:48.351Z,24.70
2018-08-16T19:07:50.410Z,24.70
2018-08-16T19:09:52.458Z,24.70
2018-08-16T19:11:54.478Z,24.70
2018-08-16T19:13:56.463Z,24.70
2018-08-16T19:15:58.493Z,24.80
2018-08-16T19:18:00.480Z,24.70
2018-08-16T19:20:02.478Z,24.80
2018-08-16T19:22:04.467Z,24.70
2018-08-16T19:24:06.496Z,24.80
2018-08-16T19:26:08.528Z,24.70
2018-08-16T19:28:10.536Z,24.70
2018-08-16T19:30:12.558Z,24.70
2018-08-16T19:32:14.555Z,24.70
2018-08-16T19:34:16.590Z,24.70
2018-08-16T19:36:18.578Z,24.70
2018-08-16T19:38:20.594Z,24.70
2018-08-16T19:40:22.644Z,24.70
2018-08-16T19:42:24.657Z,24.70
2018-08-16T19:44:26.655Z,24.70
2018-08-16T19:46:28.693Z,24.70
2018-08-16T19:48:30.788Z,24.70
2018-08-16T19:50:32.717Z,24.70
2018-08-16T19:52:34.739Z,24.80
2018-08-16T19:54:36.726Z,24.70
2018-08-16T19:56:38.761Z,24.70
2018-08-16T19:58:40.784Z,24.80
2018-08-16T20:00:42.769Z,24.70
2018-08-16T20:02:44.806Z,24.70
2018-08-16T20:04:46.806Z,24.70
2018-08-16T20:06:48.805Z,24.70
2018-08-16T20:08:51.158Z,24.70
2018-08-16T20:10:53.208Z,24.70
2018-08-16T20:12:55.631Z,24.70
2018-08-16T20:14:57.618Z,24.80
2018-08-16T20:16:59.641Z,24.70
2018-08-16T20:19:01.647Z,24.70
2018-08-16T20:21:03.648Z,24.70
2018-08-16T20:23:05.677Z,24.70
2018-08-16T20:25:07.698Z,24.70
2018-08-16T20:27:09.714Z,24.70
2018-08-16T20:29:11.720Z,24.70
2018-08-16T20:31:13.700Z,24.70
2018-08-16T20:33:15.753Z,24.70
2018-08-16T20:35:17.804Z,24.70
2018-08-16T20:37:19.801Z,24.70
2018-08-16T20:39:21.795Z,24.70
2018-08-16T20:41:23.824Z,24.70
2018-08-16T20:43:25.830Z,24.70
2018-08-16T20:45:27.883Z,24.70
2018-08-16T20:47:29.927Z,24.70
2018-08-16T20:49:31.907Z,24.70
2018-08-16T20:51:33.904Z,24.70
2018-08-16T20:53:35.923Z,24.60
2018-08-16T20:55:37.950Z,24.60
2018-08-16T20:57:39.950Z,24.70
2018-08-16T20:59:41.937Z,24.70
2018-08-16T21:01:43.972Z,24.70
2018-08-16T21:03:45.968Z,24.70
2018-08-16T21:05:47.966Z,24.60
2018-08-16T21:07:49.981Z,24.60
2018-08-16T21:09:51.971Z,24.70
2018-08-16T21:11:53.998Z,24.60
2018-08-16T21:13:56.101Z,24.60
2018-08-16T21:15:58.124Z,24.60
2018-08-16T21:18:00.196Z,24.60
2018-08-16T21:20:02.178Z,24.60
2018-08-16T21:22:04.197Z,24.60
2018-08-16T21:24:06.232Z,24.60
2018-08-16T21:26:08.251Z,24.60
2018-08-16T21:28:10.292Z,24.60
2018-08-16T21:30:12.360Z,24.60
2018-08-16T21:32:14.351Z,24.60
2018-08-16T21:34:16.360Z,24.60
2018-08-16T21:36:18.360Z,24.70
2018-08-16T21:38:20.372Z,24.60
2018-08-16T21:40:22.369Z,24.60
2018-08-16T21:42:24.389Z,24.60
2018-08-16T21:44:26.384Z,24.60
2018-08-16T21:46:28.403Z,24.70
2018-08-16T21:48:30.387Z,24.60
2018-08-16T21:50:32.403Z,24.60
2018-08-16T21:52:34.410Z,24.60
2018-08-16T21:54:36.434Z,24.60
2018-08-16T21:56:38.441Z,24.60
2018-08-16T21:58:40.422Z,24.60
2018-08-16T22:00:42.429Z,24.70
2018-08-16T22:02:45.581Z,24.60
2018-08-16T22:04:47.604Z,24.60
2018-08-16T22:06:49.602Z,24.60
2018-08-16T22:08:51.605Z,24.60
2018-08-16T22:10:53.593Z,24.60
2018-08-16T22:12:55.584Z,24.60
2018-08-16T22:14:57.597Z,24.60
2018-08-16T22:16:59.627Z,24.60
2018-08-16T22:19:01.604Z,24.60
2018-08-16T22:21:03.591Z,24.60
2018-08-16T22:23:05.644Z,24.50
2018-08-16T22:25:07.607Z,24.50
2018-08-16T22:27:09.596Z,24.50
2018-08-16T22:29:11.616Z,24.50
2018-08-16T22:31:13.661Z,24.50
2018-08-16T22:33:15.669Z,24.50
2018-08-16T22:35:17.682Z,24.50
2018-08-16T22:37:19.679Z,24.50
2018-08-16T22:39:21.656Z,24.40
2018-08-16T22:41:23.690Z,24.50
2018-08-16T22:43:25.653Z,24.40
2018-08-16T22:45:27.645Z,24.40
2018-08-16T22:47:29.660Z,24.40
2018-08-16T22:49:31.644Z,24.40
2018-08-16T22:51:33.672Z,24.40
2018-08-16T22:53:35.658Z,24.40
2018-08-16T22:55:37.633Z,24.40
2018-08-16T22:57:39.635Z,24.40
2018-08-16T22:59:41.659Z,24.40
2018-08-16T23:01:43.684Z,24.30
2018-08-16T23:03:45.698Z,24.40
2018-08-16T23:05:47.698Z,24.30
2018-08-16T23:07:49.697Z,24.30
2018-08-16T23:09:51.700Z,24.30
2018-08-16T23:11:53.678Z,24.30
2018-08-16T23:13:55.651Z,24.30
2018-08-16T23:15:57.673Z,24.30
2018-08-16T23:17:59.669Z,24.30
2018-08-16T23:20:01.704Z,24.30
2018-08-16T23:22:03.694Z,24.30
2018-08-16T23:24:05.705Z,24.30
2018-08-16T23:26:07.709Z,24.30
2018-08-16T23:28:09.722Z,24.30
2018-08-16T23:30:11.718Z,24.30
2018-08-16T23:32:13.754Z,24.30
2018-08-16T23:34:15.738Z,24.30
2018-08-16T23:36:17.716Z,24.30
2018-08-16T23:38:19.720Z,24.30
2018-08-16T23:40:21.751Z,24.20
2018-08-16T23:42:23.745Z,24.30
2018-08-16T23:44:25.737Z,24.20
2018-08-16T23:46:27.767Z,24.30
2018-08-16T23:48:29.777Z,24.30
2018-08-16T23:50:31.736Z,24.20
2018-08-16T23:52:33.754Z,24.30
2018-08-16T23:54:35.776Z,24.20
2018-08-16T23:56:37.784Z,24.20
2018-08-16T23:58:40.094Z,24.20
